<?xml version="1.0" encoding="UTF-8" standalone="no" ?>
<gpx xmlns="http://www.topografix.com/GPX/1/1" xmlns:xsi="http://www.w3.org/2001/XMLSchema-instance" xsi:schemaLocation="http://www.topografix.com/GPX/1/1 http://www.topografix.com/GPX/1/1/gpx.xsd" version="1.1" creator="VisuGPX - https://www.visugpx.com">
  <metadata>
    <name>65 - PEDESTRE - La fruitière au lac d\'Estom et retour</name>
    <desc><![CDATA[Petite sortie]]></desc>
  </metadata>
  <wpt lat="42.85205" lon="-0.09777">
    <ele>1541.107421875</ele>
    <name><![CDATA[001]]></name>
    <desc><![CDATA[09-JUL-15 10:54:57]]></desc>
    <cmt><![CDATA[09-JUL-15 10:54:57]]></cmt>
  </wpt>
  <wpt lat="42.80774" lon="-0.09945">
    <ele>1783.8386230469</ele>
    <name><![CDATA[002]]></name>
    <desc><![CDATA[09-JUL-15 11:40:35]]></desc>
    <cmt><![CDATA[09-JUL-15 11:40:35]]></cmt>
  </wpt>
  <wpt lat="42.85352" lon="-0.09853">
    <ele>1369.1</ele>
    <name><![CDATA[La Fruitière]]></name>
    <desc><![CDATA[La Fruitière]]></desc>
    <cmt><![CDATA[La Fruitière]]></cmt>
  </wpt>
  <wpt lat="42.80625" lon="-0.09995">
    <ele>1802</ele>
    <name><![CDATA[Lac D'Estom]]></name>
    <desc><![CDATA[Lac D'Estom]]></desc>
    <cmt><![CDATA[Lac D'Estom]]></cmt>
  </wpt>
  <wpt lat="42.853" lon="-0.09797">
    <ele>1365.2</ele>
    <name><![CDATA[Parking]]></name>
    <desc><![CDATA[Parking la Fruitière 1371m]]></desc>
    <cmt><![CDATA[Parking la Fruitière 1371m]]></cmt>
  </wpt>
  <wpt lat="42.80846" lon="-0.09922">
    <ele>1796.9</ele>
    <name><![CDATA[Refuge D'Estom]]></name>
    <desc><![CDATA[Refuge D'Estom (Hôtellerie)]]></desc>
    <cmt><![CDATA[Refuge D'Estom (Hôtellerie)]]></cmt>
  </wpt>
  <trk>
    <name><![CDATA[ACTIVE LOG 004]]></name>
    <trkseg>
      <trkpt lat="42.85205" lon="-0.09777">
        <ele>1377.7065429688</ele>
        <time>2015-07-09T08:12:44Z</time>
      </trkpt>
      <trkpt lat="42.85205" lon="-0.09777">
        <ele>1381.0712890625</ele>
        <time>2015-07-09T08:13:25Z</time>
      </trkpt>
      <trkpt lat="42.85205" lon="-0.09777">
        <ele>1383.955078125</ele>
        <time>2015-07-09T08:14:04Z</time>
      </trkpt>
      <trkpt lat="42.85205" lon="-0.09777">
        <ele>1387.3195800781</ele>
        <time>2015-07-09T08:14:54Z</time>
      </trkpt>
      <trkpt lat="42.85205" lon="-0.09777">
        <ele>1390.6843261719</ele>
        <time>2015-07-09T08:16:32Z</time>
      </trkpt>
      <trkpt lat="42.85205" lon="-0.09777">
        <ele>1394.0490722656</ele>
        <time>2015-07-09T08:17:37Z</time>
      </trkpt>
      <trkpt lat="42.85205" lon="-0.09777">
        <ele>1397.4135742188</ele>
        <time>2015-07-09T08:18:25Z</time>
      </trkpt>
      <trkpt lat="42.85205" lon="-0.09777">
        <ele>1400.2976074219</ele>
        <time>2015-07-09T08:19:18Z</time>
      </trkpt>
      <trkpt lat="42.85205" lon="-0.09777">
        <ele>1403.662109375</ele>
        <time>2015-07-09T08:19:47Z</time>
      </trkpt>
      <trkpt lat="42.85205" lon="-0.09777">
        <ele>1406.5461425781</ele>
        <time>2015-07-09T08:21:11Z</time>
      </trkpt>
      <trkpt lat="42.85205" lon="-0.09777">
        <ele>1409.9106445312</ele>
        <time>2015-07-09T08:21:36Z</time>
      </trkpt>
      <trkpt lat="42.85205" lon="-0.09777">
        <ele>1412.7946777344</ele>
        <time>2015-07-09T08:22:20Z</time>
      </trkpt>
      <trkpt lat="42.85205" lon="-0.09777">
        <ele>1416.1591796875</ele>
        <time>2015-07-09T08:22:49Z</time>
      </trkpt>
      <trkpt lat="42.85205" lon="-0.09777">
        <ele>1419.5239257812</ele>
        <time>2015-07-09T08:23:10Z</time>
      </trkpt>
      <trkpt lat="42.85205" lon="-0.09777">
        <ele>1422.888671875</ele>
        <time>2015-07-09T08:23:27Z</time>
      </trkpt>
      <trkpt lat="42.85205" lon="-0.09777">
        <ele>1425.7724609375</ele>
        <time>2015-07-09T08:23:43Z</time>
      </trkpt>
      <trkpt lat="42.85205" lon="-0.09777">
        <ele>1429.1369628906</ele>
        <time>2015-07-09T08:24:01Z</time>
      </trkpt>
      <trkpt lat="42.85205" lon="-0.09777">
        <ele>1432.5017089844</ele>
        <time>2015-07-09T08:24:16Z</time>
      </trkpt>
      <trkpt lat="42.85205" lon="-0.09777">
        <ele>1435.3854980469</ele>
        <time>2015-07-09T08:24:40Z</time>
      </trkpt>
      <trkpt lat="42.85205" lon="-0.09777">
        <ele>1438.7504882812</ele>
        <time>2015-07-09T08:25:12Z</time>
      </trkpt>
      <trkpt lat="42.85205" lon="-0.09777">
        <ele>1442.1149902344</ele>
        <time>2015-07-09T08:26:11Z</time>
      </trkpt>
      <trkpt lat="42.85205" lon="-0.09777">
        <ele>1443.076171875</ele>
        <time>2015-07-09T08:28:12Z</time>
      </trkpt>
      <trkpt lat="42.85205" lon="-0.09777">
        <ele>1446.4409179688</ele>
        <time>2015-07-09T08:29:00Z</time>
      </trkpt>
      <trkpt lat="42.85205" lon="-0.09777">
        <ele>1449.3247070312</ele>
        <time>2015-07-09T08:29:40Z</time>
      </trkpt>
      <trkpt lat="42.85205" lon="-0.09777">
        <ele>1452.689453125</ele>
        <time>2015-07-09T08:30:09Z</time>
      </trkpt>
      <trkpt lat="42.85205" lon="-0.09777">
        <ele>1455.5734863281</ele>
        <time>2015-07-09T08:30:32Z</time>
      </trkpt>
      <trkpt lat="42.85205" lon="-0.09777">
        <ele>1458.9379882812</ele>
        <time>2015-07-09T08:30:53Z</time>
      </trkpt>
      <trkpt lat="42.85205" lon="-0.09777">
        <ele>1462.3024902344</ele>
        <time>2015-07-09T08:31:10Z</time>
      </trkpt>
      <trkpt lat="42.85205" lon="-0.09777">
        <ele>1462.783203125</ele>
        <time>2015-07-09T08:32:46Z</time>
      </trkpt>
      <trkpt lat="42.85205" lon="-0.09777">
        <ele>1466.1477050781</ele>
        <time>2015-07-09T08:34:22Z</time>
      </trkpt>
      <trkpt lat="42.85205" lon="-0.09777">
        <ele>1468.5512695312</ele>
        <time>2015-07-09T08:36:09Z</time>
      </trkpt>
      <trkpt lat="42.85205" lon="-0.09777">
        <ele>1466.1477050781</ele>
        <time>2015-07-09T08:36:21Z</time>
      </trkpt>
      <trkpt lat="42.85205" lon="-0.09777">
        <ele>1469.0319824219</ele>
        <time>2015-07-09T08:36:22Z</time>
      </trkpt>
      <trkpt lat="42.85205" lon="-0.09777">
        <ele>1468.0705566406</ele>
        <time>2015-07-09T08:36:23Z</time>
      </trkpt>
      <trkpt lat="42.85205" lon="-0.09777">
        <ele>1471.4350585938</ele>
        <time>2015-07-09T08:36:58Z</time>
      </trkpt>
      <trkpt lat="42.85205" lon="-0.09777">
        <ele>1469.9931640625</ele>
        <time>2015-07-09T08:37:12Z</time>
      </trkpt>
      <trkpt lat="42.85205" lon="-0.09777">
        <ele>1473.8383789062</ele>
        <time>2015-07-09T08:37:13Z</time>
      </trkpt>
      <trkpt lat="42.85205" lon="-0.09777">
        <ele>1472.396484375</ele>
        <time>2015-07-09T08:37:14Z</time>
      </trkpt>
      <trkpt lat="42.85205" lon="-0.09777">
        <ele>1475.2802734375</ele>
        <time>2015-07-09T08:38:40Z</time>
      </trkpt>
      <trkpt lat="42.85205" lon="-0.09777">
        <ele>1478.6450195312</ele>
        <time>2015-07-09T08:39:56Z</time>
      </trkpt>
      <trkpt lat="42.85205" lon="-0.09777">
        <ele>1482.0095214844</ele>
        <time>2015-07-09T08:40:50Z</time>
      </trkpt>
      <trkpt lat="42.85205" lon="-0.09777">
        <ele>1485.3742675781</ele>
        <time>2015-07-09T08:42:07Z</time>
      </trkpt>
      <trkpt lat="42.85205" lon="-0.09777">
        <ele>1483.9321289062</ele>
        <time>2015-07-09T08:42:09Z</time>
      </trkpt>
      <trkpt lat="42.85205" lon="-0.09777">
        <ele>1487.296875</ele>
        <time>2015-07-09T08:42:36Z</time>
      </trkpt>
      <trkpt lat="42.85205" lon="-0.09777">
        <ele>1489.7001953125</ele>
        <time>2015-07-09T08:43:22Z</time>
      </trkpt>
      <trkpt lat="42.85205" lon="-0.09777">
        <ele>1488.2583007812</ele>
        <time>2015-07-09T08:43:24Z</time>
      </trkpt>
      <trkpt lat="42.85205" lon="-0.09777">
        <ele>1491.1420898438</ele>
        <time>2015-07-09T08:43:58Z</time>
      </trkpt>
      <trkpt lat="42.85205" lon="-0.09777">
        <ele>1493.5454101562</ele>
        <time>2015-07-09T08:44:12Z</time>
      </trkpt>
      <trkpt lat="42.85205" lon="-0.09777">
        <ele>1496.9099121094</ele>
        <time>2015-07-09T08:44:37Z</time>
      </trkpt>
      <trkpt lat="42.85205" lon="-0.09777">
        <ele>1498.8325195312</ele>
        <time>2015-07-09T08:44:51Z</time>
      </trkpt>
      <trkpt lat="42.85205" lon="-0.09777">
        <ele>1502.197265625</ele>
        <time>2015-07-09T08:45:00Z</time>
      </trkpt>
      <trkpt lat="42.85205" lon="-0.09777">
        <ele>1505.5620117188</ele>
        <time>2015-07-09T08:45:36Z</time>
      </trkpt>
      <trkpt lat="42.85205" lon="-0.09777">
        <ele>1508.4458007812</ele>
        <time>2015-07-09T08:45:55Z</time>
      </trkpt>
      <trkpt lat="42.85205" lon="-0.09777">
        <ele>1511.3298339844</ele>
        <time>2015-07-09T08:46:17Z</time>
      </trkpt>
      <trkpt lat="42.85205" lon="-0.09777">
        <ele>1513.2524414062</ele>
        <time>2015-07-09T08:46:23Z</time>
      </trkpt>
      <trkpt lat="42.85205" lon="-0.09777">
        <ele>1515.1750488281</ele>
        <time>2015-07-09T08:46:34Z</time>
      </trkpt>
      <trkpt lat="42.85205" lon="-0.09777">
        <ele>1516.6171875</ele>
        <time>2015-07-09T08:46:41Z</time>
      </trkpt>
      <trkpt lat="42.85205" lon="-0.09777">
        <ele>1518.0590820312</ele>
        <time>2015-07-09T08:46:49Z</time>
      </trkpt>
      <trkpt lat="42.85205" lon="-0.09777">
        <ele>1521.4235839844</ele>
        <time>2015-07-09T08:48:01Z</time>
      </trkpt>
      <trkpt lat="42.85205" lon="-0.09777">
        <ele>1521.4235839844</ele>
        <time>2015-07-09T08:48:31Z</time>
      </trkpt>
      <trkpt lat="42.85205" lon="-0.09777">
        <ele>1519.9816894531</ele>
        <time>2015-07-09T08:48:37Z</time>
      </trkpt>
      <trkpt lat="42.85205" lon="-0.09777">
        <ele>1521.4235839844</ele>
        <time>2015-07-09T08:48:38Z</time>
      </trkpt>
      <trkpt lat="42.85205" lon="-0.09777">
        <ele>1522.8657226562</ele>
        <time>2015-07-09T08:50:16Z</time>
      </trkpt>
      <trkpt lat="42.85205" lon="-0.09777">
        <ele>1524.3076171875</ele>
        <time>2015-07-09T08:51:08Z</time>
      </trkpt>
      <trkpt lat="42.85205" lon="-0.09777">
        <ele>1527.1916503906</ele>
        <time>2015-07-09T08:51:29Z</time>
      </trkpt>
      <trkpt lat="42.85205" lon="-0.09777">
        <ele>1529.5947265625</ele>
        <time>2015-07-09T08:51:53Z</time>
      </trkpt>
      <trkpt lat="42.85205" lon="-0.09777">
        <ele>1532.9594726562</ele>
        <time>2015-07-09T08:52:10Z</time>
      </trkpt>
      <trkpt lat="42.85205" lon="-0.09777">
        <ele>1535.8435058594</ele>
        <time>2015-07-09T08:53:16Z</time>
      </trkpt>
      <trkpt lat="42.85205" lon="-0.09777">
        <ele>1539.2080078125</ele>
        <time>2015-07-09T08:54:17Z</time>
      </trkpt>
      <trkpt lat="42.85205" lon="-0.09777">
        <ele>1542.0920410156</ele>
        <time>2015-07-09T08:55:09Z</time>
      </trkpt>
      <trkpt lat="42.85205" lon="-0.09777">
        <ele>1544.9758300781</ele>
        <time>2015-07-09T08:56:04Z</time>
      </trkpt>
      <trkpt lat="42.85205" lon="-0.09777">
        <ele>1548.3405761719</ele>
        <time>2015-07-09T08:56:55Z</time>
      </trkpt>
      <trkpt lat="42.85205" lon="-0.09777">
        <ele>1551.7053222656</ele>
        <time>2015-07-09T08:58:57Z</time>
      </trkpt>
      <trkpt lat="42.85205" lon="-0.09777">
        <ele>1555.0698242188</ele>
        <time>2015-07-09T09:00:18Z</time>
      </trkpt>
      <trkpt lat="42.85205" lon="-0.09777">
        <ele>1557.9538574219</ele>
        <time>2015-07-09T09:01:00Z</time>
      </trkpt>
      <trkpt lat="42.85205" lon="-0.09777">
        <ele>1561.318359375</ele>
        <time>2015-07-09T09:02:34Z</time>
      </trkpt>
      <trkpt lat="42.85205" lon="-0.09777">
        <ele>1564.2023925781</ele>
        <time>2015-07-09T09:03:15Z</time>
      </trkpt>
      <trkpt lat="42.85205" lon="-0.09777">
        <ele>1567.5668945312</ele>
        <time>2015-07-09T09:03:45Z</time>
      </trkpt>
      <trkpt lat="42.85205" lon="-0.09777">
        <ele>1570.4509277344</ele>
        <time>2015-07-09T09:04:03Z</time>
      </trkpt>
      <trkpt lat="42.85205" lon="-0.09777">
        <ele>1573.8154296875</ele>
        <time>2015-07-09T09:04:28Z</time>
      </trkpt>
      <trkpt lat="42.85205" lon="-0.09777">
        <ele>1577.6606445312</ele>
        <time>2015-07-09T09:05:13Z</time>
      </trkpt>
      <trkpt lat="42.85205" lon="-0.09777">
        <ele>1577.6606445312</ele>
        <time>2015-07-09T09:05:14Z</time>
      </trkpt>
      <trkpt lat="42.85205" lon="-0.09777">
        <ele>1581.5061035156</ele>
        <time>2015-07-09T09:05:59Z</time>
      </trkpt>
      <trkpt lat="42.85205" lon="-0.09777">
        <ele>1584.3901367188</ele>
        <time>2015-07-09T09:06:25Z</time>
      </trkpt>
      <trkpt lat="42.85205" lon="-0.09777">
        <ele>1587.7546386719</ele>
        <time>2015-07-09T09:06:54Z</time>
      </trkpt>
    </trkseg>
  </trk>
</gpx>